sensor_id;sensor_type;location;lat;lon;timestamp;pressure;altitude;pressure_sealevel;temperature;humidity
45813;BME280;31519;45.408;10.962;2024-01-11T00:02:07;101843.34;;;3.88;75.83
45813;BME280;31519;45.408;10.962;2024-01-11T00:04:35;101844.63;;;3.97;75.59
45813;BME280;31519;45.408;10.962;2024-01-11T00:07:03;101833.38;;;3.90;76.17
45813;BME280;31519;45.408;10.962;2024-01-11T00:09:32;101839.69;;;4.00;75.78
45813;BME280;31519;45.408;10.962;2024-01-11T00:12:00;101834.78;;;4.04;75.58
45813;BME280;31519;45.408;10.962;2024-01-11T00:14:29;101833.88;;;3.98;75.79
45813;BME280;31519;45.408;10.962;2024-01-11T00:16:57;101828.47;;;3.93;76.06
45813;BME280;31519;45.408;10.962;2024-01-11T00:19:25;101833.66;;;4.12;75.56
45813;BME280;31519;45.408;10.962;2024-01-11T00:21:53;101822.19;;;4.06;75.53
45813;BME280;31519;45.408;10.962;2024-01-11T00:24:21;101821.72;;;4.21;74.96
45813;BME280;31519;45.408;10.962;2024-01-11T00:26:49;101823.75;;;3.95;75.86
45813;BME280;31519;45.408;10.962;2024-01-11T00:29:18;101819.88;;;3.98;76.29
45813;BME280;31519;45.408;10.962;2024-01-11T00:31:46;101815.72;;;3.90;76.55
45813;BME280;31519;45.408;10.962;2024-01-11T00:34:14;101814.47;;;3.81;77.17
45813;BME280;31519;45.408;10.962;2024-01-11T00:36:42;101814.56;;;3.75;76.79
45813;BME280;31519;45.408;10.962;2024-01-11T00:39:11;101815.50;;;3.80;76.60
45813;BME280;31519;45.408;10.962;2024-01-11T00:41:39;101814.91;;;3.90;76.17
45813;BME280;31519;45.408;10.962;2024-01-11T00:44:08;101818.09;;;3.69;77.00
45813;BME280;31519;45.408;10.962;2024-01-11T00:46:37;101821.53;;;3.69;76.63
45813;BME280;31519;45.408;10.962;2024-01-11T00:49:07;101822.75;;;3.55;77.03
45813;BME280;31519;45.408;10.962;2024-01-11T00:51:35;101820.72;;;2.79;79.23
45813;BME280;31519;45.408;10.962;2024-01-11T00:54:03;101838.91;;;2.19;83.90
45813;BME280;31519;45.408;10.962;2024-01-11T00:56:31;101830.78;;;2.64;83.31
45813;BME280;31519;45.408;10.962;2024-01-11T00:59:00;101827.56;;;2.80;82.52
45813;BME280;31519;45.408;10.962;2024-01-11T01:01:28;101825.72;;;2.99;81.90
45813;BME280;31519;45.408;10.962;2024-01-11T01:03:57;101824.13;;;3.16;80.72
45813;BME280;31519;45.408;10.962;2024-01-11T01:06:25;101815.56;;;3.21;80.45
45813;BME280;31519;45.408;10.962;2024-01-11T01:08:55;101819.06;;;3.15;80.36
45813;BME280;31519;45.408;10.962;2024-01-11T01:11:23;101816.72;;;3.25;80.67
45813;BME280;31519;45.408;10.962;2024-01-11T01:13:51;101817.72;;;3.24;80.50
45813;BME280;31519;45.408;10.962;2024-01-11T01:16:20;101819.41;;;3.18;80.79
45813;BME280;31519;45.408;10.962;2024-01-11T01:18:48;101818.97;;;3.21;79.96
45813;BME280;31519;45.408;10.962;2024-01-11T01:21:16;101817.53;;;3.37;79.62
45813;BME280;31519;45.408;10.962;2024-01-11T01:23:45;101817.47;;;3.43;78.91
45813;BME280;31519;45.408;10.962;2024-01-11T01:26:13;101810.63;;;3.54;79.02
45813;BME280;31519;45.408;10.962;2024-01-11T01:28:41;101808.44;;;3.63;78.76
45813;BME280;31519;45.408;10.962;2024-01-11T01:31:09;101800.94;;;3.66;77.88
45813;BME280;31519;45.408;10.962;2024-01-11T01:33:40;101800.13;;;3.66;77.46
45813;BME280;31519;45.408;10.962;2024-01-11T01:36:10;101795.78;;;3.71;77.42
45813;BME280;31519;45.408;10.962;2024-01-11T01:38:38;101797.38;;;3.72;76.21
45813;BME280;31519;45.408;10.962;2024-01-11T01:41:06;101800.69;;;3.68;75.48
45813;BME280;31519;45.408;10.962;2024-01-11T01:43:35;101801.28;;;3.70;75.89
45813;BME280;31519;45.408;10.962;2024-01-11T01:46:05;101798.97;;;3.62;74.85
45813;BME280;31519;45.408;10.962;2024-01-11T01:48:34;101804.84;;;3.75;74.30
45813;BME280;31519;45.408;10.962;2024-01-11T01:51:03;101800.69;;;3.68;73.51
45813;BME280;31519;45.408;10.962;2024-01-11T01:53:31;101789.25;;;3.74;73.15
45813;BME280;31519;45.408;10.962;2024-01-11T01:55:59;101792.63;;;3.51;73.14
45813;BME280;31519;45.408;10.962;2024-01-11T01:58:28;101782.78;;;3.58;73.49
45813;BME280;31519;45.408;10.962;2024-01-11T02:00:57;101787.44;;;3.44;74.88
45813;BME280;31519;45.408;10.962;2024-01-11T02:03:27;101793.50;;;3.33;75.82
45813;BME280;31519;45.408;10.962;2024-01-11T02:05:56;101794.03;;;3.65;75.05
45813;BME280;31519;45.408;10.962;2024-01-11T02:08:25;101788.78;;;3.77;74.97
45813;BME280;31519;45.408;10.962;2024-01-11T02:10:56;101778.56;;;3.57;75.04
45813;BME280;31519;45.408;10.962;2024-01-11T02:13:26;101787.94;;;3.53;75.33
45813;BME280;31519;45.408;10.962;2024-01-11T02:15:54;101782.91;;;3.51;75.42
45813;BME280;31519;45.408;10.962;2024-01-11T02:18:22;101781.56;;;3.61;74.85
45813;BME280;31519;45.408;10.962;2024-01-11T02:20:50;101789.72;;;3.41;75.98
45813;BME280;31519;45.408;10.962;2024-01-11T02:23:21;101792.16;;;3.42;76.22
45813;BME280;31519;45.408;10.962;2024-01-11T02:25:52;101791.22;;;3.37;77.31
45813;BME280;31519;45.408;10.962;2024-01-11T02:28:21;101793.72;;;3.32;77.52
45813;BME280;31519;45.408;10.962;2024-01-11T02:30:49;101793.19;;;3.53;77.37
45813;BME280;31519;45.408;10.962;2024-01-11T02:33:17;101788.53;;;3.67;76.92
45813;BME280;31519;45.408;10.962;2024-01-11T02:35:46;101780.06;;;3.65;77.04
45813;BME280;31519;45.408;10.962;2024-01-11T02:38:15;101788.97;;;3.52;77.36
45813;BME280;31519;45.408;10.962;2024-01-11T02:40:44;101774.88;;;3.46;77.59
45813;BME280;31519;45.408;10.962;2024-01-11T02:43:13;101779.53;;;3.33;78.51
45813;BME280;31519;45.408;10.962;2024-01-11T02:45:41;101775.16;;;3.27;78.97
45813;BME280;31519;45.408;10.962;2024-01-11T02:48:09;101774.88;;;3.17;79.68
45813;BME280;31519;45.408;10.962;2024-01-11T02:50:38;101767.97;;;3.34;79.70
45813;BME280;31519;45.408;10.962;2024-01-11T02:53:06;101767.09;;;3.22;80.21
45813;BME280;31519;45.408;10.962;2024-01-11T02:55:34;101760.00;;;3.10;80.48
45813;BME280;31519;45.408;10.962;2024-01-11T02:58:03;101764.81;;;3.13;80.77
45813;BME280;31519;45.408;10.962;2024-01-11T03:00:31;101760.59;;;3.24;80.41
45813;BME280;31519;45.408;10.962;2024-01-11T03:02:59;101756.91;;;3.43;79.26
45813;BME280;31519;45.408;10.962;2024-01-11T03:05:28;101761.50;;;3.18;80.23
45813;BME280;31519;45.408;10.962;2024-01-11T03:07:56;101756.53;;;3.40;79.40
45813;BME280;31519;45.408;10.962;2024-01-11T03:10:25;101748.34;;;3.18;80.51
45813;BME280;31519;45.408;10.962;2024-01-11T03:12:53;101746.25;;;3.08;80.77
45813;BME280;31519;45.408;10.962;2024-01-11T03:15:21;101743.59;;;3.08;80.52
45813;BME280;31519;45.408;10.962;2024-01-11T03:17:50;101744.19;;;3.10;81.15
45813;BME280;31519;45.408;10.962;2024-01-11T03:20:18;101744.88;;;3.06;80.82
45813;BME280;31519;45.408;10.962;2024-01-11T03:22:50;101746.41;;;2.95;81.74
45813;BME280;31519;45.408;10.962;2024-01-11T03:25:19;101741.81;;;2.91;81.89
45813;BME280;31519;45.408;10.962;2024-01-11T03:27:48;101741.28;;;3.00;82.03
45813;BME280;31519;45.408;10.962;2024-01-11T03:30:16;101738.59;;;3.07;81.64
45813;BME280;31519;45.408;10.962;2024-01-11T03:32:44;101735.56;;;3.03;81.29
45813;BME280;31519;45.408;10.962;2024-01-11T03:35:13;101729.13;;;2.88;82.36
45813;BME280;31519;45.408;10.962;2024-01-11T03:37:41;101726.19;;;3.07;81.98
45813;BME280;31519;45.408;10.962;2024-01-11T03:40:09;101722.78;;;3.07;81.58
45813;BME280;31519;45.408;10.962;2024-01-11T03:42:38;101725.44;;;3.19;81.72
45813;BME280;31519;45.408;10.962;2024-01-11T03:45:06;101724.28;;;3.15;80.97
45813;BME280;31519;45.408;10.962;2024-01-11T03:47:35;101728.66;;;3.21;81.35
45813;BME280;31519;45.408;10.962;2024-01-11T03:50:03;101722.53;;;3.08;80.92
45813;BME280;31519;45.408;10.962;2024-01-11T03:52:32;101719.28;;;3.25;80.14
45813;BME280;31519;45.408;10.962;2024-01-11T03:55:00;101725.53;;;3.12;80.70
45813;BME280;31519;45.408;10.962;2024-01-11T03:57:28;101717.56;;;3.19;80.44
45813;BME280;31519;45.408;10.962;2024-01-11T03:59:56;101710.59;;;3.24;80.36
45813;BME280;31519;45.408;10.962;2024-01-11T04:02:27;101714.59;;;3.27;80.41
45813;BME280;31519;45.408;10.962;2024-01-11T04:04:56;101723.22;;;3.34;79.96
45813;BME280;31519;45.408;10.962;2024-01-11T04:07:26;101721.47;;;3.28;79.92
45813;BME280;31519;45.408;10.962;2024-01-11T04:09:54;101716.78;;;3.30;80.66
45813;BME280;31519;45.408;10.962;2024-01-11T04:12:23;101709.91;;;3.29;80.08
45813;BME280;31519;45.408;10.962;2024-01-11T04:14:51;101714.03;;;3.25;80.32
45813;BME280;31519;45.408;10.962;2024-01-11T04:17:20;101708.31;;;3.39;80.11
45813;BME280;31519;45.408;10.962;2024-01-11T04:19:48;101709.25;;;3.45;79.66
45813;BME280;31519;45.408;10.962;2024-01-11T04:22:17;101704.22;;;3.43;79.56
45813;BME280;31519;45.408;10.962;2024-01-11T04:24:45;101710.94;;;3.39;79.68
45813;BME280;31519;45.408;10.962;2024-01-11T04:27:14;101715.72;;;3.31;80.40
45813;BME280;31519;45.408;10.962;2024-01-11T04:29:42;101708.28;;;3.28;79.93
45813;BME280;31519;45.408;10.962;2024-01-11T04:32:11;101703.56;;;3.18;80.82
45813;BME280;31519;45.408;10.962;2024-01-11T04:34:39;101704.53;;;3.35;80.03
45813;BME280;31519;45.408;10.962;2024-01-11T04:37:08;101694.78;;;3.36;79.76
45813;BME280;31519;45.408;10.962;2024-01-11T04:39:37;101699.94;;;3.19;79.91
45813;BME280;31519;45.408;10.962;2024-01-11T04:42:06;101697.78;;;3.28;79.55
45813;BME280;31519;45.408;10.962;2024-01-11T04:44:34;101696.94;;;3.16;79.21
45813;BME280;31519;45.408;10.962;2024-01-11T04:47:03;101694.19;;;3.10;79.43
45813;BME280;31519;45.408;10.962;2024-01-11T04:49:31;101694.75;;;3.12;78.92
45813;BME280;31519;45.408;10.962;2024-01-11T04:52:00;101686.75;;;3.19;79.13
45813;BME280;31519;45.408;10.962;2024-01-11T04:54:29;101688.94;;;3.22;78.57
45813;BME280;31519;45.408;10.962;2024-01-11T04:56:57;101689.94;;;3.21;78.15
45813;BME280;31519;45.408;10.962;2024-01-11T04:59:26;101687.91;;;3.11;77.92
45813;BME280;31519;45.408;10.962;2024-01-11T05:01:55;101690.03;;;3.03;78.84
45813;BME280;31519;45.408;10.962;2024-01-11T05:04:24;101687.91;;;3.11;79.81
45813;BME280;31519;45.408;10.962;2024-01-11T05:06:53;101690.69;;;2.98;79.73
45813;BME280;31519;45.408;10.962;2024-01-11T05:09:21;101689.25;;;3.02;79.14
45813;BME280;31519;45.408;10.962;2024-01-11T05:11:50;101696.00;;;3.10;78.56
45813;BME280;31519;45.408;10.962;2024-01-11T05:14:19;101697.91;;;3.03;78.91
45813;BME280;31519;45.408;10.962;2024-01-11T05:16:48;101689.31;;;2.96;78.85
45813;BME280;31519;45.408;10.962;2024-01-11T05:19:16;101688.88;;;2.99;80.18
45813;BME280;31519;45.408;10.962;2024-01-11T05:21:45;101695.59;;;2.83;80.08
45813;BME280;31519;45.408;10.962;2024-01-11T05:24:13;101688.03;;;2.87;80.27
45813;BME280;31519;45.408;10.962;2024-01-11T05:26:42;101690.03;;;2.73;81.18
45813;BME280;31519;45.408;10.962;2024-01-11T05:29:10;101694.03;;;2.76;80.53
45813;BME280;31519;45.408;10.962;2024-01-11T05:31:39;101692.41;;;2.63;81.02
45813;BME280;31519;45.408;10.962;2024-01-11T05:34:08;101692.63;;;2.91;80.97
45813;BME280;31519;45.408;10.962;2024-01-11T05:36:41;101694.59;;;2.96;79.59
45813;BME280;31519;45.408;10.962;2024-01-11T05:39:09;101694.28;;;2.74;79.45
45813;BME280;31519;45.408;10.962;2024-01-11T05:41:38;101691.38;;;2.64;80.41
45813;BME280;31519;45.408;10.962;2024-01-11T05:44:06;101693.16;;;2.52;81.62
45813;BME280;31519;45.408;10.962;2024-01-11T05:46:35;101697.09;;;2.61;82.44
45813;BME280;31519;45.408;10.962;2024-01-11T05:49:03;101693.41;;;2.62;81.86
45813;BME280;31519;45.408;10.962;2024-01-11T05:51:32;101697.50;;;2.58;81.61
45813;BME280;31519;45.408;10.962;2024-01-11T05:54:00;101694.53;;;2.54;81.44
45813;BME280;31519;45.408;10.962;2024-01-11T05:56:29;101689.75;;;2.63;81.92
45813;BME280;31519;45.408;10.962;2024-01-11T05:58:58;101683.50;;;2.46;81.34
45813;BME280;31519;45.408;10.962;2024-01-11T06:01:27;101678.25;;;2.46;82.30
45813;BME280;31519;45.408;10.962;2024-01-11T06:03:56;101673.53;;;2.66;81.68
45813;BME280;31519;45.408;10.962;2024-01-11T06:06:25;101681.41;;;2.36;81.75
45813;BME280;31519;45.408;10.962;2024-01-11T06:08:53;101678.75;;;2.54;82.05
45813;BME280;31519;45.408;10.962;2024-01-11T06:11:22;101674.09;;;2.38;82.64
45813;BME280;31519;45.408;10.962;2024-01-11T06:13:51;101677.16;;;2.35;82.86
45813;BME280;31519;45.408;10.962;2024-01-11T06:16:20;101681.00;;;2.69;81.66
45813;BME280;31519;45.408;10.962;2024-01-11T06:18:50;101671.50;;;2.68;80.87
45813;BME280;31519;45.408;10.962;2024-01-11T06:21:19;101672.53;;;2.49;81.93
45813;BME280;31519;45.408;10.962;2024-01-11T06:23:47;101676.66;;;2.45;82.94
45813;BME280;31519;45.408;10.962;2024-01-11T06:26:18;101679.56;;;2.55;82.22
45813;BME280;31519;45.408;10.962;2024-01-11T06:28:46;101680.72;;;2.59;82.47
45813;BME280;31519;45.408;10.962;2024-01-11T06:31:15;101680.78;;;2.52;82.50
45813;BME280;31519;45.408;10.962;2024-01-11T06:33:44;101673.81;;;2.76;82.27
45813;BME280;31519;45.408;10.962;2024-01-11T06:36:16;101670.81;;;2.73;81.51
45813;BME280;31519;45.408;10.962;2024-01-11T06:38:44;101669.84;;;2.55;82.56
45813;BME280;31519;45.408;10.962;2024-01-11T06:41:14;101665.78;;;2.41;82.74
45813;BME280;31519;45.408;10.962;2024-01-11T06:43:42;101664.75;;;2.42;83.18
45813;BME280;31519;45.408;10.962;2024-01-11T06:46:11;101657.44;;;2.44;82.86
45813;BME280;31519;45.408;10.962;2024-01-11T06:48:40;101660.06;;;2.44;83.42
45813;BME280;31519;45.408;10.962;2024-01-11T06:51:08;101663.00;;;2.66;82.45
45813;BME280;31519;45.408;10.962;2024-01-11T06:53:37;101664.63;;;2.67;81.89
45813;BME280;31519;45.408;10.962;2024-01-11T06:56:16;101655.97;;;2.78;82.21
45813;BME280;31519;45.408;10.962;2024-01-11T06:58:46;101659.91;;;2.99;82.35
45813;BME280;31519;45.408;10.962;2024-01-11T07:01:15;101653.41;;;3.01;81.56
45813;BME280;31519;45.408;10.962;2024-01-11T07:03:45;101654.44;;;3.12;81.56
45813;BME280;31519;45.408;10.962;2024-01-11T07:06:13;101660.59;;;2.94;81.79
45813;BME280;31519;45.408;10.962;2024-01-11T07:08:42;101657.66;;;3.02;82.10
45813;BME280;31519;45.408;10.962;2024-01-11T07:11:11;101651.94;;;3.17;81.14
45813;BME280;31519;45.408;10.962;2024-01-11T07:13:39;101649.81;;;3.37;81.40
45813;BME280;31519;45.408;10.962;2024-01-11T07:16:08;101645.00;;;3.57;80.20
45813;BME280;31519;45.408;10.962;2024-01-11T07:18:39;101646.72;;;3.40;79.53
45813;BME280;31519;45.408;10.962;2024-01-11T07:21:09;101634.47;;;3.57;78.83
45813;BME280;31519;45.408;10.962;2024-01-11T07:23:37;101646.97;;;3.39;79.11
45813;BME280;31519;45.408;10.962;2024-01-11T07:26:06;101651.91;;;2.94;81.79
45813;BME280;31519;45.408;10.962;2024-01-11T07:28:34;101657.63;;;2.91;82.22
45813;BME280;31519;45.408;10.962;2024-01-11T07:31:05;101657.00;;;2.77;83.27
45813;BME280;31519;45.408;10.962;2024-01-11T07:33:33;101661.47;;;2.77;83.71
45813;BME280;31519;45.408;10.962;2024-01-11T07:36:02;101663.19;;;2.83;83.21
45813;BME280;31519;45.408;10.962;2024-01-11T07:38:31;101673.13;;;2.81;82.61
45813;BME280;31519;45.408;10.962;2024-01-11T07:40:59;101671.06;;;3.12;81.14
45813;BME280;31519;45.408;10.962;2024-01-11T07:43:28;101668.03;;;3.39;79.36
45813;BME280;31519;45.408;10.962;2024-01-11T07:46:05;101668.94;;;3.33;79.04
45813;BME280;31519;45.408;10.962;2024-01-11T07:48:36;101662.94;;;3.26;79.40
45813;BME280;31519;45.408;10.962;2024-01-11T07:51:06;101665.19;;;4.27;77.08
45813;BME280;31519;45.408;10.962;2024-01-11T07:53:34;101673.63;;;6.14;68.69
45813;BME280;31519;45.408;10.962;2024-01-11T07:56:03;101664.88;;;7.16;62.49
45813;BME280;31519;45.408;10.962;2024-01-11T07:58:32;101670.50;;;7.98;58.39
45813;BME280;31519;45.408;10.962;2024-01-11T08:01:00;101676.19;;;7.38;57.19
45813;BME280;31519;45.408;10.962;2024-01-11T08:03:28;101679.22;;;7.93;55.71
45813;BME280;31519;45.408;10.962;2024-01-11T08:05:58;101678.25;;;8.82;53.11
45813;BME280;31519;45.408;10.962;2024-01-11T08:08:26;101672.59;;;8.53;53.28
45813;BME280;31519;45.408;10.962;2024-01-11T08:10:55;101670.22;;;6.89;56.10
45813;BME280;31519;45.408;10.962;2024-01-11T08:13:23;101665.91;;;6.12;59.30
45813;BME280;31519;45.408;10.962;2024-01-11T08:15:51;101665.75;;;5.47;62.47
45813;BME280;31519;45.408;10.962;2024-01-11T08:18:21;101670.25;;;5.47;62.21
45813;BME280;31519;45.408;10.962;2024-01-11T08:20:50;101667.47;;;4.91;63.00
45813;BME280;31519;45.408;10.962;2024-01-11T08:23:18;101667.88;;;4.83;65.41
45813;BME280;31519;45.408;10.962;2024-01-11T08:25:47;101666.03;;;4.84;66.70
45813;BME280;31519;45.408;10.962;2024-01-11T08:28:15;101669.94;;;4.81;66.12
45813;BME280;31519;45.408;10.962;2024-01-11T08:30:43;101666.53;;;4.98;66.82
45813;BME280;31519;45.408;10.962;2024-01-11T08:33:11;101668.56;;;5.07;66.66
45813;BME280;31519;45.408;10.962;2024-01-11T08:35:40;101661.91;;;5.05;66.41
45813;BME280;31519;45.408;10.962;2024-01-11T08:38:09;101672.97;;;5.35;66.13
45813;BME280;31519;45.408;10.962;2024-01-11T08:40:39;101662.41;;;6.07;63.64
45813;BME280;31519;45.408;10.962;2024-01-11T08:43:07;101669.06;;;5.54;65.00
45813;BME280;31519;45.408;10.962;2024-01-11T08:45:35;101662.63;;;6.05;64.30
45813;BME280;31519;45.408;10.962;2024-01-11T08:48:04;101664.53;;;5.88;64.08
45813;BME280;31519;45.408;10.962;2024-01-11T08:50:32;101665.56;;;6.04;63.41
45813;BME280;31519;45.408;10.962;2024-01-11T08:53:00;101666.13;;;6.28;62.82
45813;BME280;31519;45.408;10.962;2024-01-11T08:55:29;101669.59;;;6.33;62.12
45813;BME280;31519;45.408;10.962;2024-01-11T08:57:57;101674.06;;;6.76;61.10
45813;BME280;31519;45.408;10.962;2024-01-11T09:00:26;101666.84;;;6.98;59.86
45813;BME280;31519;45.408;10.962;2024-01-11T09:02:54;101660.22;;;6.69;60.53
45813;BME280;31519;45.408;10.962;2024-01-11T09:05:23;101659.47;;;7.00;60.63
45813;BME280;31519;45.408;10.962;2024-01-11T09:07:51;101660.94;;;7.18;60.01
45813;BME280;31519;45.408;10.962;2024-01-11T09:10:22;101658.88;;;7.25;58.55
45813;BME280;31519;45.408;10.962;2024-01-11T09:12:50;101659.44;;;7.64;58.35
45813;BME280;31519;45.408;10.962;2024-01-11T09:15:18;101660.28;;;7.38;58.78
45813;BME280;31519;45.408;10.962;2024-01-11T09:17:46;101656.31;;;8.24;57.05
45813;BME280;31519;45.408;10.962;2024-01-11T09:20:15;101656.03;;;8.26;55.92
45813;BME280;31519;45.408;10.962;2024-01-11T09:22:44;101652.19;;;8.64;55.07
45813;BME280;31519;45.408;10.962;2024-01-11T09:25:13;101659.16;;;9.05;54.08
45813;BME280;31519;45.408;10.962;2024-01-11T09:27:42;101655.94;;;9.03;53.75
45813;BME280;31519;45.408;10.962;2024-01-11T09:30:10;101653.31;;;8.88;54.59
45813;BME280;31519;45.408;10.962;2024-01-11T09:32:39;101654.78;;;8.43;55.96
45813;BME280;31519;45.408;10.962;2024-01-11T09:35:07;101644.19;;;8.49;56.40
45813;BME280;31519;45.408;10.962;2024-01-11T09:37:40;101650.59;;;7.95;55.80
45813;BME280;31519;45.408;10.962;2024-01-11T09:40:09;101649.00;;;8.57;55.37
45813;BME280;31519;45.408;10.962;2024-01-11T09:42:39;101644.22;;;7.91;56.82
45813;BME280;31519;45.408;10.962;2024-01-11T09:45:17;101652.03;;;8.23;55.73
45813;BME280;31519;45.408;10.962;2024-01-11T09:47:45;101650.25;;;8.39;55.21
45813;BME280;31519;45.408;10.962;2024-01-11T09:50:16;101645.28;;;8.63;55.16
45813;BME280;31519;45.408;10.962;2024-01-11T09:52:49;101636.00;;;8.75;54.55
45813;BME280;31519;45.408;10.962;2024-01-11T09:55:18;101637.84;;;8.65;54.71
45813;BME280;31519;45.408;10.962;2024-01-11T09:57:47;101637.00;;;8.49;56.16
45813;BME280;31519;45.408;10.962;2024-01-11T10:00:18;101627.72;;;9.58;53.34
45813;BME280;31519;45.408;10.962;2024-01-11T10:02:47;101625.38;;;9.31;52.85
45813;BME280;31519;45.408;10.962;2024-01-11T10:05:17;101622.47;;;9.48;52.87
45813;BME280;31519;45.408;10.962;2024-01-11T10:07:47;101607.44;;;9.87;51.56
45813;BME280;31519;45.408;10.962;2024-01-11T10:10:15;101607.75;;;9.81;51.78
45813;BME280;31519;45.408;10.962;2024-01-11T10:12:43;101610.34;;;9.96;50.98
45813;BME280;31519;45.408;10.962;2024-01-11T10:15:12;101606.81;;;10.64;49.79
45813;BME280;31519;45.408;10.962;2024-01-11T10:17:45;101605.47;;;10.67;50.28
45813;BME280;31519;45.408;10.962;2024-01-11T10:20:15;101599.97;;;10.87;48.80
45813;BME280;31519;45.408;10.962;2024-01-11T10:22:45;101589.44;;;10.33;50.63
45813;BME280;31519;45.408;10.962;2024-01-11T10:25:15;101590.31;;;11.25;48.15
45813;BME280;31519;45.408;10.962;2024-01-11T10:27:44;101587.41;;;11.98;46.98
45813;BME280;31519;45.408;10.962;2024-01-11T10:30:16;101597.59;;;12.15;46.18
45813;BME280;31519;45.408;10.962;2024-01-11T10:32:47;101582.09;;;11.69;46.50
45813;BME280;31519;45.408;10.962;2024-01-11T10:35:16;101578.63;;;11.74;46.50
45813;BME280;31519;45.408;10.962;2024-01-11T10:37:50;101586.47;;;11.60;46.40
45813;BME280;31519;45.408;10.962;2024-01-11T10:40:22;101589.44;;;11.35;46.69
45813;BME280;31519;45.408;10.962;2024-01-11T10:42:53;101582.13;;;11.17;48.14
45813;BME280;31519;45.408;10.962;2024-01-11T10:45:27;101575.69;;;11.23;47.88
45813;BME280;31519;45.408;10.962;2024-01-11T10:47:56;101580.94;;;12.60;45.42
45813;BME280;31519;45.408;10.962;2024-01-11T10:50:36;101573.63;;;13.30;44.00
45813;BME280;31519;45.408;10.962;2024-01-11T10:55:48;101571.66;;;13.36;42.79
45813;BME280;31519;45.408;10.962;2024-01-11T10:58:18;101562.84;;;13.49;42.91
45813;BME280;31519;45.408;10.962;2024-01-11T11:00:51;101559.41;;;14.12;41.55
45813;BME280;31519;45.408;10.962;2024-01-11T11:03:25;101552.22;;;13.85;41.42
45813;BME280;31519;45.408;10.962;2024-01-11T11:05:54;101538.25;;;13.88;41.77
45813;BME280;31519;45.408;10.962;2024-01-11T11:08:24;101543.50;;;13.39;42.24
45813;BME280;31519;45.408;10.962;2024-01-11T11:10:59;101530.38;;;13.92;41.76
45813;BME280;31519;45.408;10.962;2024-01-11T11:13:28;101524.47;;;13.67;42.42
45813;BME280;31519;45.408;10.962;2024-01-11T11:15:56;101526.38;;;12.61;43.97
45813;BME280;31519;45.408;10.962;2024-01-11T11:18:29;101519.13;;;13.13;43.57
45813;BME280;31519;45.408;10.962;2024-01-11T11:20:58;101521.59;;;12.77;44.32
45813;BME280;31519;45.408;10.962;2024-01-11T11:23:26;101517.84;;;13.24;44.04
45813;BME280;31519;45.408;10.962;2024-01-11T11:25:55;101512.25;;;13.61;42.47
45813;BME280;31519;45.408;10.962;2024-01-11T11:28:25;101514.94;;;13.48;43.17
45813;BME280;31519;45.408;10.962;2024-01-11T11:30:54;101504.06;;;13.17;44.19
45813;BME280;31519;45.408;10.962;2024-01-11T11:33:24;101491.41;;;13.86;43.79
45813;BME280;31519;45.408;10.962;2024-01-11T11:35:57;101489.28;;;13.60;43.81
45813;BME280;31519;45.408;10.962;2024-01-11T11:38:27;101488.00;;;13.94;42.99
45813;BME280;31519;45.408;10.962;2024-01-11T11:41:00;101481.84;;;13.57;44.58
45813;BME280;31519;45.408;10.962;2024-01-11T11:43:29;101482.47;;;12.81;45.14
45813;BME280;31519;45.408;10.962;2024-01-11T11:46:00;101477.59;;;13.15;45.44
45813;BME280;31519;45.408;10.962;2024-01-11T11:51:12;101470.06;;;13.31;45.05
45813;BME280;31519;45.408;10.962;2024-01-11T11:53:46;101465.59;;;15.09;41.85
45813;BME280;31519;45.408;10.962;2024-01-11T11:56:20;101465.38;;;14.89;42.23
45813;BME280;31519;45.408;10.962;2024-01-11T11:58:50;101459.22;;;14.97;42.46
45813;BME280;31519;45.408;10.962;2024-01-11T12:01:21;101455.63;;;15.01;41.50
45813;BME280;31519;45.408;10.962;2024-01-11T12:03:49;101454.56;;;15.11;41.58
45813;BME280;31519;45.408;10.962;2024-01-11T12:06:20;101444.38;;;14.91;41.73
45813;BME280;31519;45.408;10.962;2024-01-11T12:08:52;101449.56;;;15.35;41.44
45813;BME280;31519;45.408;10.962;2024-01-11T12:11:25;101455.38;;;16.03;40.62
45813;BME280;31519;45.408;10.962;2024-01-11T12:13:54;101446.66;;;16.14;40.64
45813;BME280;31519;45.408;10.962;2024-01-11T12:16:26;101445.44;;;16.75;38.69
45813;BME280;31519;45.408;10.962;2024-01-11T12:18:55;101436.69;;;15.55;40.16
45813;BME280;31519;45.408;10.962;2024-01-11T12:21:24;101436.38;;;14.69;41.79
45813;BME280;31519;45.408;10.962;2024-01-11T12:23:54;101442.06;;;14.00;43.85
45813;BME280;31519;45.408;10.962;2024-01-11T12:26:23;101438.50;;;15.37;41.05
45813;BME280;31519;45.408;10.962;2024-01-11T12:28:51;101433.50;;;15.44;41.31
45813;BME280;31519;45.408;10.962;2024-01-11T12:31:21;101426.28;;;15.53;40.70
45813;BME280;31519;45.408;10.962;2024-01-11T12:33:50;101426.38;;;15.48;40.12
45813;BME280;31519;45.408;10.962;2024-01-11T12:36:20;101415.25;;;16.61;39.18
45813;BME280;31519;45.408;10.962;2024-01-11T12:38:48;101418.31;;;16.34;38.60
45813;BME280;31519;45.408;10.962;2024-01-11T12:41:24;101418.19;;;16.13;39.79
45813;BME280;31519;45.408;10.962;2024-01-11T12:43:52;101405.81;;;14.78;42.12
45813;BME280;31519;45.408;10.962;2024-01-11T12:46:22;101406.81;;;16.16;39.34
45813;BME280;31519;45.408;10.962;2024-01-11T12:48:51;101406.94;;;16.83;38.17
45813;BME280;31519;45.408;10.962;2024-01-11T12:51:20;101394.94;;;17.10;37.81
45813;BME280;31519;45.408;10.962;2024-01-11T12:53:53;101389.16;;;17.70;36.02
45813;BME280;31519;45.408;10.962;2024-01-11T12:56:22;101388.25;;;17.66;35.90
45813;BME280;31519;45.408;10.962;2024-01-11T12:58:51;101381.38;;;18.23;35.53
45813;BME280;31519;45.408;10.962;2024-01-11T13:01:20;101386.69;;;16.22;37.01
45813;BME280;31519;45.408;10.962;2024-01-11T13:03:48;101382.03;;;16.66;36.98